Time;durP1;ratioP1;P1;durP2;ratioP2;P2;SDS_P1;SDS_P2;PMS_P1;PMS_P2;Temp;Humidity;BMP_temperature;BMP_pressure;BME280_temperature;BME280_humidity;BME280_pressure;Samples;Min_cycle;Max_cycle;Signal;HPM_P1;HPM_P2
2022/08/10 00:01:33;;;;;;;;;;;23.80;33.70;;;21.51;34.63;102281.50;12253976;19;20378;-89
2022/08/10 00:05:35;;;;;;;;;;;23.80;33.70;;;21.18;34.60;102247.72;12255694;19;19955;-88
2022/08/10 00:09:36;;;;;;;;;;;23.60;33.70;;;20.81;34.56;102217.75;12253201;19;19915;-89
2022/08/10 00:13:38;;;;;;;;;;;23.60;33.80;;;20.76;34.64;102221.59;12254924;19;19971;-88
2022/08/10 00:17:39;;;;;;;;;;;23.50;33.80;;;21.27;34.84;102304.63;12257928;19;19918;-88
2022/08/10 00:21:41;;;;;;;;;;;23.40;33.80;;;21.13;34.98;102303.00;12253455;19;19948;-88
2022/08/10 00:25:43;;;;;;;;;;;23.40;33.90;;;20.55;34.90;102216.09;12255644;19;20004;-89
2022/08/10 00:29:44;;;;;;;;;;;23.30;33.90;;;21.19;34.84;102332.59;12255586;19;19915;-88
2022/08/10 00:33:46;;;;;;;;;;;23.20;34.00;;;21.12;35.06;102319.91;12255190;19;19925;-88
2022/08/10 00:37:48;;;;;;;;;;;23.10;34.00;;;20.80;35.17;102274.50;12252848;19;20368;-88
2022/08/10 00:41:50;;;;;;;;;;;23.20;34.20;;;20.71;35.15;102255.63;12252479;19;20623;-88
2022/08/10 00:45:51;;;;;;;;;;;23.10;34.20;;;20.95;35.20;102298.13;12253685;19;20296;-88
2022/08/10 00:49:53;;;;;;;;;;;23.10;34.20;;;21.19;35.17;102329.94;12252286;19;19927;-88
2022/08/10 00:53:55;;;;;;;;;;;23.00;34.20;;;20.95;35.39;102295.47;12253562;19;20323;-88
2022/08/10 00:57:57;;;;;;;;;;;23.00;34.40;;;20.59;35.44;102240.59;12252228;19;19926;-88
2022/08/10 01:01:59;;;;;;;;;;;23.00;34.30;;;21.12;35.44;102334.03;12248674;19;19931;-88
2022/08/10 01:06:32;;;;;;;;;;;23.00;34.50;;;21.15;35.55;102333.81;12251741;19;19974;-89
2022/08/10 01:10:38;;;;;;;;;;;22.90;34.30;;;20.91;35.71;102291.31;12251804;19;19915;-88
2022/08/10 01:14:47;;;;;;;;;;;22.90;34.40;;;20.92;35.49;102305.44;12251775;19;20404;-88
2022/08/10 01:18:52;;;;;;;;;;;22.90;34.50;;;20.85;35.68;102299.75;12248262;19;19907;-88
2022/08/10 01:23:29;;;;;;;;;;;22.80;34.60;;;20.69;35.70;102284.09;12247231;19;19944;-88
2022/08/10 01:27:59;;;;;;;;;;;22.80;34.50;;;20.82;35.67;102330.97;12252100;19;19949;-88
2022/08/10 01:32:04;;;;;;;;;;;22.70;34.60;;;20.51;35.79;102309.28;12247145;19;19919;-87
2022/08/10 01:36:11;;;;;;;;;;;22.60;34.60;;;20.46;35.85;102327.34;12248673;19;19936;-88
2022/08/10 01:40:14;;;;;;;;;;;22.60;34.60;;;20.22;36.02;102306.03;12246564;19;19919;-88
2022/08/10 01:44:21;;;;;;;;;;;22.70;34.70;;;20.20;36.25;102321.22;12245316;19;20295;-88
2022/08/10 01:48:35;;;;;;;;;;;22.30;34.60;;;20.17;36.33;102319.66;12250467;19;19919;-88
2022/08/10 01:52:39;;;;;;;;;;;22.30;34.70;;;20.01;36.14;102284.53;12246629;19;19929;-88
2022/08/10 01:56:55;;;;;;;;;;;22.30;34.80;;;20.08;36.05;102288.47;12248448;19;19911;-88
2022/08/10 02:00:57;;;;;;;;;;;22.10;34.90;;;20.19;35.96;102306.28;12243065;19;19918;-88
2022/08/10 02:05:01;;;;;;;;;;;22.10;34.90;;;20.06;36.12;102287.72;12248596;19;19946;-88
2022/08/10 02:09:05;;;;;;;;;;;22.20;35.40;;;19.59;36.20;102213.19;12247848;19;19915;-88
2022/08/10 02:13:08;;;;;;;;;;;22.00;35.00;;;20.10;36.14;102303.31;12247524;19;19986;-88
2022/08/10 02:17:15;;;;;;;;;;;22.00;35.00;;;20.09;36.43;102312.22;12246918;19;19979;-88
2022/08/10 02:21:18;;;;;;;;;;;22.00;35.00;;;19.70;36.70;102249.56;12244093;19;19932;-88
2022/08/10 02:25:20;;;;;;;;;;;21.90;35.00;;;19.70;36.40;102248.72;12247564;19;19922;-88
2022/08/10 02:29:23;;;;;;;;;;;22.10;35.20;;;19.60;36.71;102251.97;12248063;19;19914;-88
2022/08/10 02:33:26;;;;;;;;;;;21.90;35.10;;;19.37;36.47;102218.28;12259020;19;19915;-88
2022/08/10 02:37:28;;;;;;;;;;;21.80;35.10;;;19.50;36.36;102244.78;12258434;19;19990;-89
2022/08/10 02:42:02;;;;;;;;;;;21.90;35.20;;;19.91;36.45;102339.19;12255306;19;19922;-89
2022/08/10 02:46:08;;;;;;;;;;;21.80;35.20;;;19.29;36.62;102247.09;12257425;19;19919;-88
2022/08/10 02:50:25;;;;;;;;;;;21.70;35.30;;;19.67;36.57;102337.25;12256006;19;19910;-88
2022/08/10 02:54:34;;;;;;;;;;;21.60;35.20;;;19.51;37.04;102331.25;12257522;19;19953;-88
2022/08/10 02:58:42;;;;;;;;;;;21.60;35.30;;;19.30;37.16;102312.34;12257538;19;19944;-88
2022/08/10 03:02:48;;;;;;;;;;;21.50;35.30;;;19.38;37.16;102339.19;12251166;19;19930;-89
2022/08/10 03:07:00;;;;;;;;;;;21.40;35.30;;;19.30;37.00;102339.69;12251786;19;20480;-88
2022/08/10 03:11:03;;;;;;;;;;;21.30;35.30;;;19.28;37.03;102344.25;12254375;19;20257;-87
2022/08/10 03:15:06;;;;;;;;;;;21.20;35.40;;;19.13;37.06;102322.25;12255871;19;19917;-88
2022/08/10 03:19:08;;;;;;;;;;;21.20;35.50;;;19.10;37.18;102318.97;12254103;19;20263;-88
2022/08/10 03:23:15;;;;;;;;;;;21.20;35.60;;;19.01;37.22;102308.03;12252233;19;19907;-89
2022/08/10 03:27:16;;;;;;;;;;;21.10;35.70;;;18.59;37.25;102240.19;12255068;19;19988;-88
2022/08/10 03:31:18;;;;;;;;;;;21.20;35.80;;;19.06;37.25;102339.50;12253694;19;19936;-88
2022/08/10 03:35:20;;;;;;;;;;;21.00;35.70;;;18.83;37.41;102325.13;12259915;19;20237;-89
2022/08/10 03:39:22;;;;;;;;;;;21.00;35.90;;;18.63;37.57;102321.06;12257077;19;19947;-89
2022/08/10 03:43:24;;;;;;;;;;;20.90;35.70;;;18.66;37.57;102344.69;12254739;19;19919;-87
2022/08/10 03:47:28;;;;;;;;;;;20.80;35.80;;;18.38;37.73;102327.06;12257232;19;19943;-89
2022/08/10 03:51:30;;;;;;;;;;;20.70;35.90;;;18.30;37.89;102321.41;12254291;19;19923;-89
2022/08/10 03:55:32;;;;;;;;;;;20.60;35.90;;;18.13;37.88;102304.78;12256066;19;19926;-88
2022/08/10 03:59:35;;;;;;;;;;;20.50;35.80;;;18.32;37.95;102327.44;12254213;19;20546;-89
2022/08/10 04:03:41;;;;;;;;;;;20.50;36.00;;;18.14;37.88;102292.41;12253790;19;20318;-88
2022/08/10 04:07:43;;;;;;;;;;;20.40;36.00;;;17.92;37.89;102248.78;12254196;19;19915;-88
2022/08/10 04:11:48;;;;;;;;;;;20.40;36.20;;;18.21;37.79;102303.47;12255114;19;20307;-90
2022/08/10 04:15:50;;;;;;;;;;;20.50;36.40;;;18.18;38.13;102293.09;12254205;19;20313;-89
2022/08/10 04:19:52;;;;;;;;;;;20.50;36.40;;;18.53;37.91;102346.41;12251469;19;20016;-89
2022/08/10 04:23:54;;;;;;;;;;;20.40;36.30;;;18.40;38.02;102322.53;12248986;19;19923;-89
2022/08/10 04:27:56;;;;;;;;;;;20.80;36.50;;;17.95;38.24;102252.19;12252961;19;19922;-88
2022/08/10 04:31:59;;;;;;;;;;;20.40;36.40;;;18.39;38.16;102336.72;12246166;19;19922;-89
2022/08/10 04:36:02;;;;;;;;;;;20.50;36.40;;;18.06;38.15;102277.00;12248553;19;20318;-87
2022/08/10 04:40:04;;;;;;;;;;;20.40;36.40;;;18.31;38.30;102318.66;12247523;19;19914;-88
2022/08/10 04:44:06;;;;;;;;;;;20.40;36.50;;;17.85;38.17;102236.09;12245834;19;20358;-88
2022/08/10 04:48:08;;;;;;;;;;;20.70;36.60;;;18.00;38.11;102263.34;12247572;19;19923;-88
2022/08/10 04:52:09;;;;;;;;;;;20.40;36.60;;;18.27;38.41;102308.38;12242938;19;19936;-89
2022/08/10 04:56:11;;;;;;;;;;;20.40;36.80;;;18.27;38.27;102303.91;12247963;19;19927;-87
2022/08/10 05:00:13;;;;;;;;;;;20.40;36.80;;;18.50;38.62;102326.28;12244492;19;20245;-89
2022/08/10 05:04:16;;;;;;;;;;;20.50;36.80;;;18.49;38.47;102316.63;12246910;19;19922;-88
2022/08/10 05:08:18;;;;;;;;;;;20.60;37.00;;;18.24;38.44;102274.19;12248499;19;19915;-88
2022/08/10 05:12:19;;;;;;;;;;;20.90;37.10;;;18.40;38.38;102296.06;12244439;19;19940;-88
2022/08/10 05:16:21;;;;;;;;;;;20.70;36.90;;;18.39;38.73;102289.09;12248531;19;19919;-88
2022/08/10 05:20:22;;;;;;;;;;;20.50;36.90;;;18.46;38.55;102295.69;12244550;19;19955;-88
2022/08/10 05:24:24;;;;;;;;;;;20.90;37.10;;;18.55;38.85;102296.88;12247212;19;19922;-89
2022/08/10 05:28:25;;;;;;;;;;;20.70;37.30;;;18.63;38.64;102305.19;12245964;19;19915;-88
2022/08/10 05:32:27;;;;;;;;;;;20.90;37.40;;;18.75;38.85;102316.81;12243437;19;19931;-88
2022/08/10 05:36:34;;;;;;;;;;;21.20;37.30;;;18.66;38.86;102302.38;12247086;19;19907;-88
2022/08/10 05:40:39;;;;;;;;;;;20.90;37.70;;;18.80;38.91;102304.16;12243668;19;19918;-88
2022/08/10 05:44:41;;;;;;;;;;;21.10;37.40;;;18.51;39.14;102245.13;12246779;19;19932;-89
2022/08/10 05:48:43;;;;;;;;;;;21.10;37.30;;;18.50;39.20;102231.06;12246266;19;20020;-88
2022/08/10 05:52:44;;;;;;;;;;;21.20;37.40;;;18.83;39.23;102266.03;12241490;19;20344;-89
2022/08/10 05:56:47;;;;;;;;;;;21.20;37.70;;;19.45;39.02;102345.78;12245582;19;19939;-89
2022/08/10 06:00:54;;;;;;;;;;;21.30;37.80;;;19.44;39.40;102321.09;12241308;19;19929;-89
2022/08/10 06:04:57;;;;;;;;;;;21.40;37.80;;;19.69;39.09;102303.53;12250963;19;20386;-89
2022/08/10 06:08:59;;;;;;;;;;;21.70;37.70;;;19.73;39.42;102267.06;12257130;19;19937;-86
2022/08/10 06:17:24;;;;;;;;;;;22.10;37.90;;;20.90;39.47;102371.09;12258491;19;20333;-87
2022/08/10 06:21:26;;;;;;;;;;;22.40;37.80;;;21.11;39.49;102377.50;12253988;19;19940;-86
2022/08/10 06:25:31;;;;;;;;;;;22.80;38.00;;;21.32;39.19;102384.84;12258269;19;19926;-86
2022/08/10 06:29:35;;;;;;;;;;;22.80;37.90;;;21.42;39.12;102383.25;12255813;19;19944;-87
2022/08/10 06:33:38;;;;;;;;;;;23.00;37.70;;;21.12;39.05;102306.63;12256659;19;19970;-87
2022/08/10 06:37:39;;;;;;;;;;;23.40;37.50;;;21.46;39.26;102350.13;12257583;19;20300;-87
2022/08/10 06:41:41;;;;;;;;;;;23.30;37.50;;;;;;12252864;19;19946;-86
2022/08/10 06:45:52;;;;;;;;;;;23.40;37.60;;;21.77;39.40;102364.63;12257609;19;19919;-86
2022/08/10 06:49:57;;;;;;;;;;;23.50;37.50;;;21.98;39.24;102388.72;12257776;19;19915;-88
2022/08/10 06:54:03;;;;;;;;;;;23.80;37.50;;;22.05;39.39;102394.41;12252476;19;19994;-88
2022/08/10 06:58:05;;;;;;;;;;;23.80;37.70;;;21.69;39.19;102313.00;12255021;19;20321;-88
2022/08/10 07:02:10;;;;;;;;;;;23.80;37.50;;;21.97;39.19;102347.09;12249527;19;20330;-87
2022/08/10 07:06:14;;;;;;;;;;;23.90;37.40;;;22.22;39.66;102355.84;12253186;19;19943;-87
2022/08/10 07:10:21;;;;;;;;;;;23.90;37.30;;;22.30;39.39;102354.31;12250820;19;20645;-87
2022/08/10 07:14:24;;;;;;;;;;;24.10;37.70;;;22.49;39.46;102368.78;12253970;19;19911;-86
2022/08/10 07:18:28;;;;;;;;;;;24.20;37.60;;;22.57;39.03;102349.53;12255259;19;19927;-87
2022/08/10 07:22:30;;;;;;;;;;;24.30;37.30;;;22.24;39.05;102279.41;12254046;19;19939;-87
2022/08/10 07:26:33;;;;;;;;;;;24.50;37.60;;;22.72;39.28;102343.00;12254838;19;19933;-88
2022/08/10 07:30:37;;;;;;;;;;;24.50;37.50;;;22.95;39.39;102360.63;12253149;19;20350;-87
2022/08/10 07:34:40;;;;;;;;;;;24.70;37.30;;;23.18;39.45;102352.56;12255259;19;19914;-87
2022/08/10 07:38:42;;;;;;;;;;;24.80;37.40;;;23.39;39.18;102342.78;12254836;19;19930;-87
2022/08/10 07:42:44;;;;;;;;;;;25.10;37.50;;;23.55;39.42;102325.50;12251418;19;19922;-86
2022/08/10 07:47:04;;;;;;;;;;;25.30;37.80;;;24.12;39.36;102361.50;12253415;19;20314;-87
2022/08/10 07:51:06;;;;;;;;;;;25.50;37.40;;;24.40;39.29;102361.75;12249656;19;19919;-87
2022/08/10 07:55:13;;;;;;;;;;;25.80;37.50;;;24.62;38.99;102350.03;12251883;19;19923;-88
2022/08/10 07:59:17;;;;;;;;;;;26.00;37.40;;;25.03;39.36;102373.00;12244002;19;19956;-87
2022/08/10 08:03:23;;;;;;;;;;;26.30;37.40;;;24.92;39.16;102298.31;12247247;19;19919;-87
2022/08/10 08:07:26;;;;;;;;;;;26.60;37.30;;;25.47;38.89;102338.72;12252889;19;19919;-87
2022/08/10 08:11:28;;;;;;;;;;;27.20;37.30;;;25.87;38.71;102363.56;12247278;19;20298;-87
2022/08/10 08:15:30;;;;;;;;;;;27.50;37.10;;;26.07;38.98;102351.00;12252928;19;19986;-87
2022/08/10 08:19:32;;;;;;;;;;;27.50;36.90;;;26.37;38.77;102356.06;12245181;19;19966;-88
2022/08/10 08:23:33;;;;;;;;;;;27.70;36.80;;;26.40;38.86;102331.66;12247881;19;19926;-88
2022/08/10 08:27:35;;;;;;;;;;;28.00;36.60;;;26.74;38.57;102338.25;12249179;19;19914;-86
2022/08/10 08:31:37;;;;;;;;;;;28.20;36.40;;;27.02;38.51;102358.63;12248185;19;19940;-86
2022/08/10 08:35:39;;;;;;;;;;;28.50;36.20;;;27.07;38.32;102348.28;12250804;19;20341;-86
2022/08/10 08:39:41;;;;;;;;;;;28.60;35.50;;;27.26;38.29;102362.56;12249256;19;19969;-86
2022/08/10 08:43:57;;;;;;;;;;;28.80;35.70;;;27.43;38.18;102358.19;12251319;19;20265;-85
2022/08/10 08:48:10;;;;;;;;;;;28.90;35.60;;;27.61;37.93;102350.94;12254054;19;20310;-87
2022/08/10 08:52:24;;;;;;;;;;;29.10;35.20;;;27.83;37.82;102351.44;12248060;19;19926;-89
2022/08/10 08:56:50;;;;;;;;;;;29.20;35.30;;;28.10;37.64;102353.94;12250555;19;19921;-87
2022/08/10 09:01:29;;;;;;;;;;;29.50;35.50;;;28.29;37.72;102341.25;12249129;19;20329;-89
2022/08/10 09:05:39;;;;;;;;;;;29.70;35.00;;;28.57;37.14;102340.06;12250667;19;19923;-89
2022/08/10 09:10:07;;;;;;;;;;;29.90;35.10;;;28.69;37.10;102324.44;12247810;19;19918;-89
2022/08/10 09:14:34;;;;;;;;;;;30.10;34.90;;;28.78;37.13;102322.59;12246240;19;19914;-90
2022/08/10 09:19:00;;;;;;;;;;;30.30;35.30;;;28.95;36.97;102332.38;12250184;19;19951;-89
2022/08/10 09:23:27;;;;;;;;;;;30.40;34.60;;;29.09;36.99;102331.75;12245783;19;19915;-89
2022/08/10 09:27:39;;;;;;;;;;;30.50;34.60;;;29.06;37.02;102328.56;12248593;19;19922;-89
2022/08/10 09:31:49;;;;;;;;;;;30.70;34.00;;;29.09;36.93;102323.69;12245159;19;19930;-89
2022/08/10 09:35:59;;;;;;;;;;;30.70;34.10;;;28.76;36.65;102252.88;12247419;19;19914;-89
2022/08/10 09:40:31;;;;;;;;;;;30.80;34.40;;;29.09;36.50;102295.94;12241776;19;19934;-89
2022/08/10 09:44:42;;;;;;;;;;;30.80;34.10;;;29.41;36.28;102335.44;12245515;19;19914;-89
2022/08/10 09:49:07;;;;;;;;;;;30.90;34.10;;;29.52;36.25;102318.09;12247077;19;19921;-86
2022/08/10 09:53:26;;;;;;;;;;;31.00;34.10;;;29.71;36.09;102316.91;12246980;19;19923;-89
2022/08/10 09:57:40;;;;;;;;;;;31.20;33.50;;;29.82;36.12;102294.16;12244408;19;19970;-89
2022/08/10 10:01:51;;;;;;;;;;;31.30;34.30;;;30.07;35.64;102317.28;12244062;19;19925;-89
2022/08/10 10:06:08;;;;;;;;;;;31.40;33.90;;;30.12;35.86;102314.91;12244949;19;19929;-89
2022/08/10 10:10:21;;;;;;;;;;;31.60;33.70;;;30.25;35.71;102316.25;12245530;19;20336;-89
2022/08/10 10:14:32;;;;;;;;;;;31.70;34.00;;;30.24;35.49;102315.38;12246683;19;19919;-87
2022/08/10 10:18:48;;;;;;;;;;;31.70;33.30;;;30.16;35.08;102294.69;12246712;19;20287;-89
2022/08/10 10:23:04;;;;;;;;;;;31.70;33.60;;;30.18;35.12;102289.09;12243338;19;20276;-87
2022/08/10 10:27:46;;;;;;;;;;;31.70;33.60;;;30.25;35.36;102297.38;12246303;19;19922;-85
2022/08/10 10:32:07;;;;;;;;;;;31.80;33.40;;;30.32;34.91;102301.84;12241757;19;19975;-86
2022/08/10 10:36:10;;;;;;;;;;;31.90;33.60;;;30.22;35.27;102279.66;12247517;19;19911;-87
2022/08/10 10:40:12;;;;;;;;;;;32.00;33.30;;;30.38;35.09;102282.28;12246755;19;19918;-86
2022/08/10 10:44:25;;;;;;;;;;;31.90;33.20;;;30.48;34.90;102286.59;12242374;19;19917;-88
2022/08/10 10:48:27;;;;;;;;;;;31.90;32.20;;;30.45;34.50;102277.00;12246538;19;19982;-86
2022/08/10 10:52:41;;;;;;;;;;;31.90;32.90;;;30.52;34.69;102275.28;12250944;19;20300;-88
2022/08/10 10:56:55;;;;;;;;;;;32.00;33.00;;;30.65;34.81;102264.75;12259453;19;19943;-89
2022/08/10 11:01:24;;;;;;;;;;;32.10;33.10;;;30.80;34.25;102263.94;12253000;19;19922;-89
2022/08/10 11:06:10;;;;;;;;;;;32.20;33.10;;;30.88;34.53;102271.19;12259746;19;19915;-88
2022/08/10 11:10:23;;;;;;;;;;;32.30;33.00;;;30.96;34.27;102265.72;12255960;19;19911;-86
2022/08/10 11:14:38;;;;;;;;;;;32.40;32.80;;;30.97;34.06;102261.97;12260450;19;20518;-88
2022/08/10 11:18:45;;;;;;;;;;;32.50;32.50;;;31.04;33.93;102265.63;12258158;19;19918;-88
2022/08/10 11:23:01;;;;;;;;;;;32.50;32.60;;;31.07;34.01;102265.28;12244772;19;19922;-87
2022/08/10 11:27:17;;;;;;;;;;;32.50;33.20;;;31.07;33.76;102254.47;12254821;19;19922;-85
2022/08/10 11:31:57;;;;;;;;;;;32.50;32.50;;;31.00;33.52;102250.81;12251204;19;19917;-86
2022/08/10 11:36:24;;;;;;;;;;;32.50;32.20;;;30.98;33.37;102252.88;12252685;19;20348;-87
2022/08/10 11:40:34;;;;;;;;;;;32.50;30.20;;;30.92;33.25;102251.75;12246364;19;19949;-86
2022/08/10 11:44:46;;;;;;;;;;;32.50;32.00;;;30.57;33.54;102212.72;12255902;19;20242;-87
2022/08/10 11:48:54;;;;;;;;;;;32.40;31.10;;;30.84;33.58;102244.56;12255175;19;20586;-88
2022/08/10 11:53:16;;;;;;;;;;;32.50;32.00;;;30.99;33.23;102241.06;12250261;19;19918;-85
2022/08/10 11:57:17;;;;;;;;;;;32.50;32.00;;;31.03;33.32;102231.59;12252480;19;19967;-87
2022/08/10 12:01:26;;;;;;;;;;;32.60;32.40;;;31.19;33.09;102241.34;12250615;19;19939;-85
2022/08/10 12:05:31;;;;;;;;;;;32.60;31.80;;;31.22;32.98;102247.25;12252088;19;19923;-86
2022/08/10 12:09:33;;;;;;;;;;;32.60;31.90;;;31.23;32.89;102235.41;12250353;19;19926;-89
2022/08/10 12:14:07;;;;;;;;;;;32.70;32.00;;;31.18;32.79;102221.63;12249146;19;20262;-87
2022/08/10 12:18:17;;;;;;;;;;;32.70;31.90;;;30.79;32.29;102166.00;12252096;19;19911;-86
2022/08/10 12:22:23;;;;;;;;;;;32.70;31.80;;;31.08;32.35;102224.63;12246602;19;19958;-86
2022/08/10 12:26:38;;;;;;;;;;;32.60;31.10;;;31.02;32.28;102211.84;12250026;19;19915;-87
2022/08/10 12:30:47;;;;;;;;;;;32.60;31.80;;;31.13;32.41;102221.34;12250071;19;19919;-89
2022/08/10 12:35:00;;;;;;;;;;;32.60;31.50;;;31.10;32.52;102200.13;12255130;19;19926;-89
2022/08/10 12:39:36;;;;;;;;;;;32.60;30.60;;;30.96;32.04;102187.47;12252409;19;19918;-89
2022/08/10 12:44:05;;;;;;;;;;;32.60;31.30;;;31.19;32.39;102209.81;12248925;19;19914;-88
2022/08/10 12:48:25;;;;;;;;;;;32.60;31.40;;;31.24;32.13;102220.88;12251859;19;19948;-88
2022/08/10 12:52:30;;;;;;;;;;;32.60;31.30;;;31.16;31.69;102188.56;12251039;19;19911;-89
2022/08/10 12:56:35;;;;;;;;;;;32.70;31.20;;;31.20;32.17;102192.59;12254751;19;19911;-89
2022/08/10 13:00:37;;;;;;;;;;;32.70;31.60;;;31.20;31.76;102184.50;12251860;19;19932;-89
2022/08/10 13:04:41;;;;;;;;;;;32.70;31.30;;;31.23;31.55;102188.69;12247368;19;19927;-86
2022/08/10 13:13:05;;;;;;;;;;;32.70;31.20;;;31.30;31.61;102162.63;12246193;19;19911;-85
2022/08/10 13:17:06;;;;;;;;;;;32.70;31.30;;;31.36;31.59;102139.44;12243151;19;19915;-86
2022/08/10 13:21:11;;;;;;;;;;;32.90;31.50;;;31.49;31.40;102159.38;12245925;19;19919;-85
2022/08/10 13:25:17;;;;;;;;;;;32.90;31.20;;;31.56;31.25;102156.75;12247186;19;20438;-84
2022/08/10 13:29:20;;;;;;;;;;;32.90;31.30;;;31.56;31.24;102148.66;12247697;19;20032;-86
2022/08/10 13:33:26;;;;;;;;;;;33.00;31.10;;;31.56;31.24;102145.13;12247208;19;19930;-86
2022/08/10 13:37:29;;;;;;;;;;;33.00;30.90;;;31.59;31.27;102139.34;12246973;19;19919;-85
2022/08/10 13:41:36;;;;;;;;;;;33.20;30.80;;;31.69;31.40;102145.28;12244208;19;20301;-86
2022/08/10 13:45:39;;;;;;;;;;;33.10;31.20;;;31.45;31.38;102095.97;12247871;19;19930;-85
2022/08/10 13:49:48;;;;;;;;;;;33.10;30.80;;;31.80;31.23;102135.84;12245253;19;19934;-85
2022/08/10 13:53:54;;;;;;;;;;;33.10;30.80;;;31.81;30.84;102127.56;12246244;19;19947;-86
2022/08/10 13:58:01;;;;;;;;;;;33.20;31.00;;;31.64;30.75;102094.50;12247612;19;20252;-85
2022/08/10 14:02:04;;;;;;;;;;;33.30;30.80;;;31.70;31.18;102092.91;12242918;19;19915;-85
2022/08/10 14:06:11;;;;;;;;;;;33.30;30.50;;;31.75;31.07;102085.91;12245721;19;19911;-85
2022/08/10 14:10:14;;;;;;;;;;;33.30;31.00;;;31.72;30.81;102067.38;12242051;19;19914;-87
2022/08/10 14:14:17;;;;;;;;;;;33.40;30.80;;;31.86;30.77;102076.44;12243219;19;19928;-86
2022/08/10 14:18:19;;;;;;;;;;;33.40;30.60;;;31.92;30.92;102086.53;12244352;19;19992;-85
2022/08/10 14:22:20;;;;;;;;;;;33.50;30.80;;;32.15;30.54;102107.13;12240423;19;20275;-86
2022/08/10 14:26:27;;;;;;;;;;;33.50;30.60;;;32.20;30.79;102104.66;12250226;19;19918;-86
2022/08/10 14:30:30;;;;;;;;;;;33.60;30.50;;;32.17;30.65;102094.25;12254858;19;19931;-87
2022/08/10 14:34:34;;;;;;;;;;;33.60;30.00;;;31.82;30.44;102045.47;12257044;19;19932;-86
2022/08/10 14:38:36;;;;;;;;;;;33.60;30.40;;;31.78;30.37;102044.16;12256716;19;19919;-86
2022/08/10 14:42:46;;;;;;;;;;;33.60;30.40;;;31.97;30.58;102075.13;12251440;19;19933;-87
2022/08/10 14:46:52;;;;;;;;;;;33.50;30.50;;;32.06;30.17;102092.91;12255635;19;19910;-86
2022/08/10 14:50:55;;;;;;;;;;;33.50;30.40;;;31.83;30.22;102057.94;12254876;19;19919;-85
2022/08/10 14:55:01;;;;;;;;;;;33.50;30.60;;;31.85;30.24;102077.50;12255617;19;20659;-85
2022/08/10 14:59:05;;;;;;;;;;;33.40;30.10;;;31.85;29.98;102082.06;12254211;19;19915;-85
2022/08/10 15:03:07;;;;;;;;;;;33.30;30.20;;;31.77;29.75;102053.31;12251587;19;20279;-86
2022/08/10 15:07:19;;;;;;;;;;;33.30;30.20;;;31.85;30.07;102065.84;12256974;19;19915;-85
2022/08/10 15:11:21;;;;;;;;;;;33.30;30.00;;;31.83;30.19;102062.50;12251962;19;19911;-86
2022/08/10 15:15:25;;;;;;;;;;;33.30;30.00;;;31.93;29.90;102073.88;12254241;19;19930;-85
2022/08/10 15:19:31;;;;;;;;;;;33.20;30.00;;;31.74;29.87;102043.72;12253283;19;20065;-85
2022/08/10 15:23:35;;;;;;;;;;;33.30;30.00;;;31.82;29.91;102047.34;12248587;19;19926;-87
2022/08/10 15:27:40;;;;;;;;;;;33.30;30.20;;;31.58;29.78;102014.25;12251157;19;20352;-86
2022/08/10 15:40:23;;;;;;;;;;;33.20;30.00;;;31.64;30.07;102027.00;12250925;19;20334;-86
2022/08/10 15:44:36;;;;;;;;;;;33.20;30.00;;;31.71;29.74;102040.56;12248271;19;19918;-86
2022/08/10 15:48:44;;;;;;;;;;;33.20;30.00;;;31.70;29.59;102030.78;12252773;19;19923;-86
2022/08/10 15:52:51;;;;;;;;;;;33.20;30.00;;;31.81;29.75;102040.22;12247609;19;19922;-85
2022/08/10 15:56:59;;;;;;;;;;;33.20;30.00;;;31.75;29.70;102034.56;12251122;19;20535;-87
2022/08/10 16:01:10;;;;;;;;;;;33.20;30.10;;;31.80;29.55;102028.59;12249455;19;19925;-85
2022/08/10 16:05:17;;;;;;;;;;;33.20;30.00;;;31.81;29.33;102029.44;12255749;19;19933;-86
2022/08/10 16:09:23;;;;;;;;;;;33.20;29.80;;;31.87;29.79;102042.19;12256001;19;19923;-86
2022/08/10 16:13:29;;;;;;;;;;;33.20;29.70;;;31.87;29.36;102034.91;12254086;19;20334;-86
2022/08/10 16:17:32;;;;;;;;;;;33.30;29.90;;;31.85;29.49;102036.97;12259920;19;19911;-86
2022/08/10 16:21:34;;;;;;;;;;;33.30;29.70;;;31.80;29.21;102028.59;12254861;19;19934;-87
2022/08/10 16:25:38;;;;;;;;;;;33.20;29.80;;;31.70;29.14;102001.06;12257126;19;19987;-87
2022/08/10 16:29:41;;;;;;;;;;;33.20;29.90;;;31.62;29.23;101991.25;12254607;19;19919;-88
2022/08/10 16:33:42;;;;;;;;;;;33.20;29.80;;;31.80;28.96;102028.59;12256884;19;19907;-86
2022/08/10 16:37:44;;;;;;;;;;;33.20;29.90;;;31.72;29.37;102017.94;12254617;19;20248;-85
2022/08/10 16:41:46;;;;;;;;;;;33.20;29.70;;;31.65;29.37;102017.88;12251901;19;20425;-86
2022/08/10 16:45:51;;;;;;;;;;;33.10;29.80;;;31.52;28.97;101994.25;12255649;19;19930;-87
2022/08/10 16:49:55;;;;;;;;;;;33.10;29.70;;;31.50;29.34;101998.19;12250661;19;19918;-86
2022/08/10 16:54:02;;;;;;;;;;;33.10;29.80;;;31.23;29.30;101959.25;12249091;19;20219;-87
2022/08/10 16:58:05;;;;;;;;;;;33.00;29.80;;;31.52;29.15;102012.34;12252743;19;19919;-86
2022/08/10 17:02:10;;;;;;;;;;;33.00;29.70;;;31.01;28.98;101932.22;12250680;19;20350;-87
2022/08/10 17:06:16;;;;;;;;;;;33.00;29.90;;;31.47;28.88;102025.56;12251913;19;20483;-86
2022/08/10 17:10:20;;;;;;;;;;;32.90;29.90;;;31.28;29.27;101991.91;12249776;19;19923;-86
2022/08/10 17:14:24;;;;;;;;;;;32.80;29.70;;;30.84;29.05;101928.94;12252532;19;20004;-87
2022/08/10 17:18:27;;;;;;;;;;;32.80;29.90;;;31.22;29.17;101992.69;12249102;19;19969;-85
2022/08/10 17:22:35;;;;;;;;;;;32.80;29.90;;;31.26;29.05;102016.38;12246597;19;20374;-86
2022/08/10 17:26:37;;;;;;;;;;;32.70;29.80;;;30.72;28.89;101930.41;12251782;19;19918;-87
2022/08/10 17:30:50;;;;;;;;;;;32.70;30.00;;;31.10;29.16;102005.81;12249580;19;19925;-86
2022/08/10 17:34:55;;;;;;;;;;;32.60;29.90;;;30.82;28.92;101968.75;12250324;19;19951;-86
2022/08/10 17:38:58;;;;;;;;;;;32.50;30.00;;;30.99;29.09;102003.59;12248615;19;19990;-87
2022/08/10 17:43:01;;;;;;;;;;;32.50;30.00;;;30.82;28.97;101984.94;12248308;19;19944;-88
2022/08/10 17:47:07;;;;;;;;;;;32.40;30.20;;;30.72;29.47;102003.22;12251873;19;19926;-87
2022/08/10 17:51:15;;;;;;;;;;;32.30;30.00;;;30.72;28.89;102007.78;12248416;19;19978;-86
2022/08/10 17:55:17;;;;;;;;;;;32.20;30.20;;;30.50;29.43;101993.38;12251311;19;19907;-86
2022/08/10 17:59:22;;;;;;;;;;;32.10;30.00;;;30.51;29.41;102013.91;12249860;19;20269;-85
2022/08/10 18:03:27;;;;;;;;;;;32.00;30.00;;;30.33;29.36;102004.34;12255062;19;19928;-85
2022/08/10 18:07:40;;;;;;;;;;;31.90;30.10;;;30.29;29.49;102016.50;12260017;19;19936;-86
2022/08/10 18:11:46;;;;;;;;;;;31.80;30.10;;;30.19;29.75;102019.44;12258383;19;19914;-86
2022/08/10 18:15:48;;;;;;;;;;;31.70;30.30;;;30.05;29.14;102008.59;12261878;19;19929;-86
2022/08/10 18:19:55;;;;;;;;;;;31.60;30.20;;;29.92;29.52;102010.06;12259475;19;19974;-86
2022/08/10 18:24:03;;;;;;;;;;;31.50;30.20;;;29.59;29.60;101970.91;12253488;19;19929;-86
2022/08/10 18:28:09;;;;;;;;;;;31.40;30.20;;;29.58;29.77;102001.56;12261308;19;19932;-86
2022/08/10 18:32:10;;;;;;;;;;;31.30;30.30;;;29.55;29.43;102027.81;12255241;19;20318;-90
2022/08/10 18:36:14;;;;;;;;;;;31.10;30.20;;;29.37;29.75;102015.66;12261650;19;19911;-88
2022/08/10 18:40:17;;;;;;;;;;;31.00;30.20;;;28.97;29.54;101977.97;12255404;19;19966;-89
2022/08/10 18:44:20;;;;;;;;;;;30.90;30.20;;;29.18;29.77;102027.69;12255185;19;19945;-89
2022/08/10 18:48:24;;;;;;;;;;;30.80;30.20;;;28.94;30.01;102013.31;12257723;19;19923;-87